Terminal Aerodrome Forecast
Issued by NWS Bismarck, ND

Home | Current Version | Previous Version | Text Only | Print | Product List | Glossary Off
Versions: 1 2 3 4 5 6 7 8 9 10 11 12 13 14 15 16 17 18 19 20 21 22 23

000
FTUS43 KBIS 110950 AAB
TAFISN
TAF AMD
KISN 110950Z 1110/1206 31026G38KT P6SM BKN025
      TEMPO 1110/1112 OVC015
     FM111200 32022G31KT P6SM OVC015
     FM111600 31014KT P6SM VCSH OVC015
     FM111800 31014G23KT P6SM BKN010
     FM120000 31011KT P6SM BKN040=

USA.gov is the U.S. government's official web portal to all federal, state and local government web resources and services.